Jacksonville, FL (32207)

2:59 AM EST on February 12, 2016 (GMT -0500)
San Marco | | Change Station
CLOSE
Current Station
Personal Weather Station
Location: Jacksonville, FL
Elevation: 39 ft
Nearby Weather Stations

Elev 39 ft 30.29 °N, 81.64 °W | Updated 2 seconds ago

Clear
Clear
49.8 °F
Feels Like 50 °F
N
0.0
Wind Variable Wind from SSE
Gusts 1.0 mph

Today
High -- | Low -- °F
--% Chance of Precip.
Yesterday
High -- | Low -- °F
Precip. -- in
Pressure 30.20 in
Visibility 10.0 miles
Clouds Clear
Windchill 50 °F
Dew Point 49 °F
Humidity 96%
Rainfall 0.00 in
Snow Depth Not available.
7:09 AM 6:12 PM
Waxing Crescent, 18% visible
METAR KNIP 120753Z AUTO 19006KT 10SM CLR 12/09 A3022 RMK AO2 SLP227 T01170094
Pressure 30.20 in
Visibility 10.0 miles
Clouds Clear
Windchill 50 °F
Dew Point 49 °F
Humidity 96%
Rainfall 0.00 in
Snow Depth Not available.
7:09 AM 6:12 PM
Waxing Crescent, 18% visible
METAR KNIP 120753Z AUTO 19006KT 10SM CLR 12/09 A3022 RMK AO2 SLP227 T01170094

10-Day Weather Forecast

Almanac

Astronomy

Feb. 12, 2016 Rise Set
Actual Time
Civil Twilight
Nautical Twilight
Astronomical Twilight
Moon
Length of Visible Light
Length of Day
Tomorrow will be .
, % of the Moon is Illuminated

Today's Extremes

State Highs State Lows

Community

WunderPhotos

Upload Photos

1,892,278 photos uploaded!

WunderBlog® & News

Nearby

Air Quality

  Air Quality AQ Index Pollutant
Not available.

Snow Depth

Station Depth Elevation

Earthquake Activity

City Distance Mag. Time & Date
Minimum magnitude displayed is 2.5.

Coastal Water Temperatures

Place Temperature

Stations

Nearby Weather Stations

Station Location Temp. Windchill Dew Point Humidity Wind Precip. Elev Updated Type
                   

Watches & Warnings

There are currently no watches in effect.